Time;durP1;ratioP1;P1;durP2;ratioP2;P2;SDS_P1;SDS_P2;PMS_P1;PMS_P2;Temp;Humidity;BMP_temperature;BMP_pressure;BME280_temperature;BME280_humidity;BME280_pressure;Samples;Min_cycle;Max_cycle;Signal;HPM_P1;HPM_P2
2024/03/20 00:01:12;;;;;;;1.70;1.10;;;23.60;63.90;;;;;;5090375;28;20521;-86
2024/03/20 00:03:41;;;;;;;2.00;1.30;;;23.60;63.90;;;;;;5077748;28;20486;-93
2024/03/20 00:06:08;;;;;;;1.70;1.20;;;23.70;64.00;;;;;;5076142;28;20543;-87
2024/03/20 00:08:35;;;;;;;2.10;1.20;;;23.60;64.80;;;;;;5076731;28;20436;-88
2024/03/20 00:11:01;;;;;;;1.70;1.00;;;23.60;63.90;;;;;;5075875;28;20436;-93
2024/03/20 00:13:28;;;;;;;1.70;1.10;;;23.60;63.90;;;;;;5076071;28;20441;-86
2024/03/20 00:15:55;;;;;;;2.27;1.37;;;23.60;63.90;;;;;;5075988;28;20939;-88
2024/03/20 00:18:22;;;;;;;1.90;1.17;;;23.70;64.00;;;;;;5075576;28;20436;-86
2024/03/20 00:20:50;;;;;;;2.53;1.27;;;23.60;63.90;;;;;;5074846;28;20466;-85
2024/03/20 00:23:17;;;;;;;1.57;0.90;;;23.60;63.90;;;;;;5073349;28;20478;-86
2024/03/20 00:25:44;;;;;;;1.60;0.87;;;23.70;64.00;;;;;;5073707;28;20437;-86
2024/03/20 00:28:10;;;;;;;1.80;1.20;;;23.60;64.70;;;;;;5075476;28;20916;-93
2024/03/20 00:30:37;;;;;;;1.80;1.30;;;23.60;63.80;;;;;;5075220;28;20456;-86
2024/03/20 00:33:04;;;;;;;1.90;1.07;;;23.60;63.90;;;;;;5075098;28;20494;-86
2024/03/20 00:35:33;;;;;;;1.70;1.20;;;23.60;63.80;;;;;;5075593;28;20441;-86
2024/03/20 00:38:01;;;;;;;1.90;1.10;;;23.60;63.80;;;;;;5074818;28;20437;-85
2024/03/20 00:40:28;;;;;;;2.00;1.47;;;23.60;63.80;;;;;;5075160;28;20444;-86
2024/03/20 00:42:54;;;;;;;1.80;1.10;;;23.60;63.80;;;;;;5075077;28;20436;-86
2024/03/20 00:45:20;;;;;;;1.93;1.23;;;23.60;63.80;;;;;;5055262;28;20469;-93
2024/03/20 00:47:47;;;;;;;1.87;1.20;;;23.60;63.80;;;;;;5054699;28;20793;-90
2024/03/20 00:50:14;;;;;;;1.70;1.30;;;23.60;63.80;;;;;;5055536;28;20225;-87
2024/03/20 00:52:41;;;;;;;2.67;1.00;;;23.60;63.80;;;;;;5055400;28;20532;-86
2024/03/20 00:55:10;;;;;;;1.60;1.13;;;23.60;63.80;;;;;;5054781;28;20460;-94
2024/03/20 00:57:37;;;;;;;1.60;1.23;;;23.60;63.70;;;;;;5054760;28;20452;-93
2024/03/20 01:00:04;;;;;;;2.20;1.40;;;23.60;63.80;;;;;;5054598;28;20913;-86
2024/03/20 01:02:31;;;;;;;3.20;1.00;;;23.60;63.80;;;;;;5054556;28;20443;-86
2024/03/20 01:04:59;;;;;;;1.60;1.00;;;23.60;63.70;;;;;;5054517;28;20488;-86
2024/03/20 01:07:25;;;;;;;1.90;1.10;;;23.70;63.80;;;;;;5054554;28;20443;-86
2024/03/20 01:09:52;;;;;;;1.80;1.30;;;23.60;63.80;;;;;;5054474;28;20441;-92
2024/03/20 01:12:20;;;;;;;1.70;1.13;;;23.60;63.70;;;;;;5054392;28;20443;-87
2024/03/20 01:14:47;;;;;;;1.67;1.10;;;23.60;63.80;;;;;;5054022;28;20802;-86
2024/03/20 01:17:15;;;;;;;3.23;1.20;;;23.50;63.60;;;;;;5054193;28;20951;-86
2024/03/20 01:19:42;;;;;;;1.80;1.20;;;23.50;63.60;;;;;;5054008;28;20433;-86
2024/03/20 01:22:08;;;;;;;2.20;1.17;;;23.60;63.80;;;;;;5054427;28;20521;-93
2024/03/20 01:24:35;;;;;;;1.80;1.10;;;23.60;63.70;;;;;;5054215;28;20493;-86
2024/03/20 01:27:02;;;;;;;2.00;1.13;;;23.50;63.60;;;;;;5054268;28;20437;-87
2024/03/20 01:29:30;;;;;;;1.63;1.10;;;23.50;63.60;;;;;;5054019;28;20932;-90
2024/03/20 01:31:57;;;;;;;1.70;1.10;;;23.50;63.60;;;;;;5053912;28;20448;-87
2024/03/20 01:34:24;;;;;;;1.90;1.20;;;23.50;63.60;;;;;;5053423;28;20438;-87
2024/03/20 01:36:52;;;;;;;1.67;1.20;;;23.60;63.70;;;;;;5053135;28;20452;-87
2024/03/20 01:39:18;;;;;;;1.80;1.20;;;23.50;63.60;;;;;;5053982;28;20438;-86
2024/03/20 01:41:45;;;;;;;1.80;0.97;;;23.50;63.60;;;;;;5053911;28;20442;-91
2024/03/20 01:44:12;;;;;;;1.63;1.10;;;23.50;63.60;;;;;;5053588;28;20488;-86
2024/03/20 01:46:41;;;;;;;1.97;1.27;;;23.50;63.50;;;;;;5053537;28;20980;-88
2024/03/20 01:49:08;;;;;;;1.80;1.13;;;23.50;63.60;;;;;;5053530;28;20438;-87
2024/03/20 01:51:37;;;;;;;1.80;1.20;;;23.50;63.60;;;;;;5054010;28;20465;-87
2024/03/20 01:54:04;;;;;;;2.00;1.10;;;23.60;63.70;;;;;;5053990;28;20445;-89
2024/03/20 01:56:32;;;;;;;1.70;1.13;;;23.50;63.50;;;;;;5053366;28;20437;-90
2024/03/20 01:58:59;;;;;;;2.00;1.40;;;23.50;63.60;;;;;;5053617;28;20807;-86
2024/03/20 02:01:26;;;;;;;1.70;1.00;;;23.50;63.50;;;;;;5053466;28;20468;-92
2024/03/20 02:03:56;;;;;;;1.70;1.23;;;23.50;63.50;;;;;;5053500;28;20483;-86
2024/03/20 02:06:25;;;;;;;1.70;1.00;;;23.50;63.50;;;;;;5053777;28;20441;-93
2024/03/20 02:08:53;;;;;;;1.50;1.10;;;23.50;63.40;;;;;;5053770;28;20444;-86
2024/03/20 02:11:21;;;;;;;1.70;1.10;;;23.50;63.40;;;;;;5053807;28;20448;-86
2024/03/20 02:13:49;;;;;;;1.70;1.10;;;23.60;63.50;;;;;;5053789;28;20532;-86
2024/03/20 02:16:16;;;;;;;1.70;1.10;;;23.50;63.40;;;;;;5053945;28;20795;-87
2024/03/20 02:18:44;;;;;;;1.87;1.30;;;23.40;63.30;;;;;;5053474;28;20444;-86
2024/03/20 02:21:12;;;;;;;2.03;1.27;;;23.50;63.40;;;;;;5053258;28;20457;-85
2024/03/20 02:23:39;;;;;;;1.60;1.10;;;23.40;63.30;;;;;;5054351;28;20456;-87
2024/03/20 02:26:07;;;;;;;3.13;1.30;;;23.50;63.40;;;;;;5053840;28;20794;-86
2024/03/20 02:28:35;;;;;;;1.70;0.97;;;23.50;63.40;;;;;;5053596;28;20528;-86
2024/03/20 02:31:02;;;;;;;1.80;1.30;;;23.40;63.30;;;;;;5055896;28;20442;-93
2024/03/20 02:33:29;;;;;;;2.10;1.20;;;23.40;63.30;;;;;;5054527;28;20819;-86
2024/03/20 02:35:56;;;;;;;1.80;1.10;;;23.50;63.30;;;;;;5053640;28;20433;-86
2024/03/20 02:38:28;;;;;;;2.00;1.30;;;23.50;63.40;;;;;;5053619;28;20433;-86
2024/03/20 02:40:56;;;;;;;1.60;1.10;;;23.50;63.30;;;;;;5053415;28;20437;-86
2024/03/20 02:43:23;;;;;;;2.47;1.10;;;23.50;63.30;;;;;;5054332;28;20441;-87
2024/03/20 02:45:49;;;;;;;1.57;1.03;;;23.50;63.30;;;;;;5053630;28;20491;-86
2024/03/20 02:48:16;;;;;;;1.67;1.23;;;23.50;63.30;;;;;;5055298;28;20425;-86
2024/03/20 02:50:43;;;;;;;1.70;1.17;;;23.40;63.20;;;;;;5057284;28;20952;-93
2024/03/20 02:53:10;;;;;;;1.87;1.20;;;23.40;63.20;;;;;;5057799;28;20429;-86
2024/03/20 02:55:40;;;;;;;1.80;1.00;;;23.40;63.20;;;;;;5056888;28;20441;-87
2024/03/20 02:58:06;;;;;;;1.60;1.03;;;23.50;63.30;;;;;;5056990;28;20436;-86
2024/03/20 03:00:33;;;;;;;2.40;1.40;;;23.50;63.30;;;;;;5057476;28;20429;-93
2024/03/20 03:03:00;;;;;;;2.10;1.10;;;23.40;63.10;;;;;;5057893;28;20448;-87
2024/03/20 03:05:29;;;;;;;2.10;1.23;;;23.50;64.10;;;;;;5063717;28;20489;-86
2024/03/20 03:07:56;;;;;;;1.60;1.00;;;23.40;64.00;;;;;;5064908;28;20445;-84
2024/03/20 03:10:24;;;;;;;1.70;0.90;;;23.40;63.20;;;;;;5069238;28;20425;-83
2024/03/20 03:12:53;;;;;;;1.90;1.10;;;23.40;63.10;;;;;;5071239;28;20516;-85
2024/03/20 03:15:21;;;;;;;1.60;1.10;;;23.40;63.20;;;;;;5057726;28;20452;-86
2024/03/20 03:17:49;;;;;;;1.77;1.27;;;23.40;63.10;;;;;;5057143;28;20440;-85
2024/03/20 03:20:19;;;;;;;2.07;1.10;;;23.40;63.20;;;;;;5056486;28;20460;-92
2024/03/20 03:22:46;;;;;;;1.70;1.10;;;23.40;63.10;;;;;;5056891;28;20444;-86
2024/03/20 03:25:14;;;;;;;1.77;1.30;;;23.40;63.10;;;;;;5056399;28;20543;-88
2024/03/20 03:27:41;;;;;;;1.80;1.30;;;23.40;63.10;;;;;;5056549;28;20441;-91
2024/03/20 03:30:10;;;;;;;1.73;1.07;;;23.40;63.10;;;;;;5056921;28;20453;-87
2024/03/20 03:32:37;;;;;;;1.70;1.00;;;23.40;63.10;;;;;;5057085;28;20442;-87
2024/03/20 03:35:04;;;;;;;1.97;1.40;;;23.40;63.20;;;;;;5056343;28;20436;-86
2024/03/20 03:37:31;;;;;;;1.73;1.17;;;23.40;63.10;;;;;;5056167;28;20437;-87
2024/03/20 03:40:00;;;;;;;1.97;1.13;;;23.40;63.20;;;;;;5056316;28;20936;-87
2024/03/20 03:42:26;;;;;;;1.50;1.00;;;23.40;63.20;;;;;;5056401;28;20966;-86
2024/03/20 03:44:53;;;;;;;1.70;1.00;;;23.40;63.10;;;;;;5056206;28;20484;-86
2024/03/20 03:47:22;;;;;;;2.00;1.20;;;23.40;63.10;;;;;;5076360;28;20442;-93
2024/03/20 03:49:49;;;;;;;1.63;1.07;;;23.40;63.10;;;;;;5076068;28;21036;-86
2024/03/20 03:52:15;;;;;;;1.80;1.03;;;23.50;63.20;;;;;;5075680;28;20481;-87
2024/03/20 03:54:42;;;;;;;1.80;1.10;;;23.40;63.10;;;;;;5076027;28;20440;-87
2024/03/20 03:57:09;;;;;;;2.30;1.60;;;23.40;63.10;;;;;;5075819;28;20433;-86
2024/03/20 03:59:36;;;;;;;2.00;1.40;;;23.40;63.10;;;;;;5074973;28;20451;-86
2024/03/20 04:02:02;;;;;;;1.80;1.20;;;23.40;63.00;;;;;;5075859;28;20435;-86
2024/03/20 04:04:31;;;;;;;1.80;1.10;;;23.30;62.90;;;;;;5075760;28;20494;-87
2024/03/20 04:06:57;;;;;;;2.13;1.40;;;23.40;63.10;;;;;;5076134;28;20460;-86
2024/03/20 04:09:25;;;;;;;1.97;1.30;;;23.30;62.90;;;;;;5075698;28;20931;-86
2024/03/20 04:11:51;;;;;;;1.80;1.10;;;23.30;62.90;;;;;;5075614;28;20440;-85
2024/03/20 04:14:18;;;;;;;1.87;1.20;;;23.40;63.10;;;;;;5075307;28;20437;-86
2024/03/20 04:16:45;;;;;;;1.90;1.30;;;23.40;63.10;;;;;;5075401;28;20436;-86
2024/03/20 04:19:12;;;;;;;1.60;1.17;;;23.30;62.90;;;;;;5075054;28;20519;-86
2024/03/20 04:21:40;;;;;;;2.70;1.13;;;23.40;63.10;;;;;;5074847;28;20908;-85
2024/03/20 04:24:07;;;;;;;2.00;1.23;;;23.30;62.90;;;;;;5075080;28;20444;-86
2024/03/20 04:26:34;;;;;;;1.57;1.03;;;23.30;62.90;;;;;;5074345;28;20440;-86
2024/03/20 04:29:01;;;;;;;1.60;1.03;;;23.30;62.90;;;;;;5074291;28;20441;-92
2024/03/20 04:31:28;;;;;;;1.70;1.20;;;23.30;62.90;;;;;;5075330;28;20963;-86
2024/03/20 04:33:55;;;;;;;5.23;1.50;;;23.30;62.90;;;;;;5075274;28;20447;-90
2024/03/20 04:36:22;;;;;;;1.70;1.17;;;23.30;62.90;;;;;;5075104;28;20444;-93
2024/03/20 04:38:50;;;;;;;2.00;1.30;;;23.30;62.90;;;;;;5075547;28;20436;-92
2024/03/20 04:41:16;;;;;;;1.80;1.37;;;23.30;62.80;;;;;;5075422;28;20447;-93
2024/03/20 04:43:43;;;;;;;2.20;1.33;;;23.30;62.80;;;;;;5075238;28;20443;-87
2024/03/20 04:46:10;;;;;;;1.63;1.10;;;23.30;62.80;;;;;;5075168;28;20498;-87
2024/03/20 04:48:37;;;;;;;1.80;1.17;;;23.30;62.80;;;;;;5074410;28;20447;-87
2024/03/20 04:51:04;;;;;;;2.10;1.40;;;23.30;62.80;;;;;;5074555;28;20452;-87
2024/03/20 04:53:31;;;;;;;1.70;1.17;;;23.30;62.90;;;;;;5074956;28;20443;-86
2024/03/20 04:55:59;;;;;;;1.57;1.00;;;23.30;63.70;;;;;;5068792;28;20444;-85
2024/03/20 04:58:25;;;;;;;1.80;1.20;;;23.30;62.90;;;;;;5059627;28;20441;-86
2024/03/20 05:00:52;;;;;;;1.70;1.20;;;23.30;62.80;;;;;;5054370;28;20434;-85
2024/03/20 05:03:19;;;;;;;2.67;1.00;;;23.40;63.00;;;;;;5054068;28;20456;-85
2024/03/20 05:05:46;;;;;;;1.60;1.00;;;23.30;62.80;;;;;;5054635;28;20488;-88
2024/03/20 05:08:11;;;;;;;1.70;1.00;;;23.30;62.80;;;;;;5054712;28;20449;-86
2024/03/20 05:10:38;;;;;;;3.30;1.30;;;23.30;62.80;;;;;;5055350;28;20817;-93
2024/03/20 05:13:07;;;;;;;1.60;1.00;;;23.30;62.80;;;;;;5055818;28;20281;-94
2024/03/20 05:15:33;;;;;;;1.60;1.10;;;23.30;62.80;;;;;;5054868;28;20460;-86
2024/03/20 05:17:59;;;;;;;1.60;1.23;;;23.30;62.80;;;;;;5054954;28;20539;-86
2024/03/20 05:20:26;;;;;;;1.60;1.10;;;23.30;62.80;;;;;;5054255;28;20659;-87
2024/03/20 05:22:52;;;;;;;2.83;1.10;;;23.30;62.80;;;;;;5054648;28;20195;-86
2024/03/20 05:25:19;;;;;;;2.10;1.20;;;23.30;62.80;;;;;;5054006;28;21074;-86
2024/03/20 05:27:44;;;;;;;2.00;1.20;;;23.30;62.80;;;;;;5054818;28;20286;-86
2024/03/20 05:30:13;;;;;;;1.77;1.00;;;23.30;62.90;;;;;;5054918;28;20476;-86
2024/03/20 05:32:39;;;;;;;2.23;1.27;;;23.30;62.80;;;;;;5054715;28;20615;-86
2024/03/20 05:35:07;;;;;;;2.27;1.53;;;23.30;62.80;;;;;;5054798;28;20813;-86
2024/03/20 05:37:33;;;;;;;1.60;1.10;;;23.30;62.80;;;;;;5055363;28;20935;-85
2024/03/20 05:40:00;;;;;;;1.70;1.20;;;23.40;62.90;;;;;;5054611;28;20471;-86
2024/03/20 05:42:26;;;;;;;1.80;1.23;;;23.30;62.80;;;;;;5054831;28;20448;-85
2024/03/20 05:44:53;;;;;;;1.83;1.07;;;23.30;62.80;;;;;;5055203;28;21046;-86
2024/03/20 05:47:20;;;;;;;2.80;1.63;;;23.30;62.80;;;;;;5055350;28;20614;-85
2024/03/20 05:49:47;;;;;;;2.37;1.10;;;23.30;62.80;;;;;;5054111;28;20462;-85
2024/03/20 05:52:13;;;;;;;2.33;1.30;;;23.30;62.80;;;;;;5054586;28;20905;-93
2024/03/20 05:55:35;;;;;;;1.90;1.33;;;23.30;62.80;;;;;;5055884;28;20545;-86
2024/03/20 05:58:01;;;;;;;1.70;1.17;;;23.20;62.90;;;;;;5055185;28;20241;-86
2024/03/20 06:00:28;;;;;;;1.50;1.00;;;23.20;63.00;;;;;;5066800;28;20476;-86
2024/03/20 06:02:56;;;;;;;1.80;1.07;;;23.20;62.90;;;;;;5074971;28;20657;-86
2024/03/20 06:05:22;;;;;;;2.23;1.43;;;23.20;62.90;;;;;;5075056;28;20487;-93
2024/03/20 06:07:49;;;;;;;2.43;1.40;;;23.20;62.90;;;;;;5075441;28;20440;-88
2024/03/20 06:10:14;;;;;;;2.53;1.57;;;23.30;63.10;;;;;;5075231;28;20194;-84
2024/03/20 06:12:42;;;;;;;2.10;1.60;;;23.20;63.10;;;;;;5075690;28;20441;-85
2024/03/20 06:15:08;;;;;;;1.97;1.30;;;23.20;63.00;;;;;;5074931;28;20206;-86
2024/03/20 06:17:35;;;;;;;5.90;2.03;;;23.30;63.00;;;;;;5075433;28;20479;-94
2024/03/20 06:20:05;;;;;;;7.70;2.27;;;23.30;62.30;;;;;;5078082;28;20467;-83
2024/03/20 06:22:32;;;;;;;7.33;2.30;;;23.20;59.70;;;;;;5094412;28;20435;-88
2024/03/20 06:24:58;;;;;;;4.27;1.90;;;23.20;61.10;;;;;;5099694;28;20537;-88
2024/03/20 06:27:26;;;;;;;2.57;1.80;;;23.20;61.90;;;;;;5086295;28;20961;-88
2024/03/20 06:29:52;;;;;;;2.90;1.77;;;23.20;62.40;;;;;;5083413;28;20449;-88
2024/03/20 06:32:19;;;;;;;2.93;1.23;;;23.20;62.70;;;;;;5082127;28;20448;-88
2024/03/20 06:34:45;;;;;;;2.90;1.40;;;23.20;62.90;;;;;;5082923;28;20425;-88
2024/03/20 06:37:14;;;;;;;2.27;1.57;;;23.20;63.10;;;;;;5081667;28;20432;-88
2024/03/20 06:39:41;;;;;;;3.33;1.83;;;23.20;63.10;;;;;;5084666;28;20182;-88
2024/03/20 06:42:16;;;;;;;3.93;1.80;;;23.20;63.30;;;;;;5084093;28;20444;-86
2024/03/20 06:44:43;;;;;;;2.63;1.60;;;23.20;63.40;;;;;;5083315;28;20439;-87
2024/03/20 06:47:10;;;;;;;3.60;1.30;;;23.20;63.70;;;;;;5080739;28;20494;-88
2024/03/20 06:49:36;;;;;;;4.47;1.57;;;23.30;63.90;;;;;;5078618;28;21044;-88
2024/03/20 06:52:04;;;;;;;6.90;1.73;;;23.30;63.90;;;;;;5079576;28;20444;-88
2024/03/20 06:54:31;;;;;;;4.50;2.00;;;23.20;64.00;;;;;;5080167;28;20194;-88
2024/03/20 06:57:01;;;;;;;3.40;1.40;;;23.30;64.10;;;;;;5077423;28;20476;-88
2024/03/20 06:59:29;;;;;;;2.30;1.33;;;23.20;64.00;;;;;;5079535;28;20470;-88
2024/03/20 07:01:56;;;;;;;4.30;1.67;;;23.20;64.10;;;;;;5078814;28;20444;-86
2024/03/20 07:04:26;;;;;;;2.37;1.83;;;23.20;64.30;;;;;;5080713;28;20435;-86
2024/03/20 07:06:53;;;;;;;3.10;1.67;;;23.20;64.20;;;;;;5077222;28;20486;-85
2024/03/20 07:09:19;;;;;;;2.53;1.57;;;23.20;64.10;;;;;;5076848;28;20441;-85
2024/03/20 07:11:48;;;;;;;3.40;1.90;;;23.20;64.10;;;;;;5076713;28;20538;-84
2024/03/20 07:14:14;;;;;;;2.63;1.40;;;23.30;63.90;;;;;;5076435;28;20447;-85
2024/03/20 07:16:41;;;;;;;2.20;1.30;;;23.30;63.30;;;;;;5075604;28;20443;-84
2024/03/20 07:19:07;;;;;;;3.80;1.53;;;23.30;63.00;;;;;;5076541;28;20444;-87
2024/03/20 07:21:35;;;;;;;2.37;1.70;;;23.30;62.80;;;;;;5073859;28;20849;-84
2024/03/20 07:24:01;;;;;;;5.50;1.40;;;23.30;62.30;;;;;;5072517;28;20229;-84
2024/03/20 07:26:29;;;;;;;6.80;2.20;;;23.30;62.70;;;;;;5077476;28;20514;-87
2024/03/20 07:28:56;;;;;;;4.87;1.87;;;23.30;62.90;;;;;;5078766;28;20440;-87
2024/03/20 07:31:23;;;;;;;7.00;1.63;;;23.30;62.70;;;;;;5073463;28;20811;-85
2024/03/20 07:33:49;;;;;;;4.33;1.60;;;23.30;63.30;;;;;;5074293;28;20516;-86
2024/03/20 07:36:16;;;;;;;4.20;1.97;;;23.30;63.40;;;;;;5076480;28;20440;-86
2024/03/20 07:38:41;;;;;;;3.03;1.87;;;23.30;62.40;;;;;;5076657;28;20440;-85
2024/03/20 07:41:08;;;;;;;6.57;1.83;;;23.30;62.40;;;;;;5077039;28;20445;-86
2024/03/20 07:43:36;;;;;;;3.00;1.60;;;23.30;62.60;;;;;;5072647;28;20561;-82
2024/03/20 07:46:04;;;;;;;9.67;1.83;;;23.40;63.30;;;;;;5076257;28;20480;-90
2024/03/20 07:48:32;;;;;;;3.90;2.30;;;23.40;62.70;;;;;;5076047;28;20535;-83
2024/03/20 07:50:59;;;;;;;3.30;1.83;;;23.40;62.30;;;;;;5075258;28;20461;-83
2024/03/20 07:53:25;;;;;;;6.73;2.30;;;23.40;62.30;;;;;;5075190;28;20440;-86
2024/03/20 07:55:54;;;;;;;7.40;1.90;;;23.40;62.40;;;;;;5075445;28;20448;-84
2024/03/20 07:58:20;;;;;;;4.87;1.70;;;23.30;62.40;;;;;;5075247;28;20932;-84
2024/03/20 08:00:47;;;;;;;6.90;2.60;;;23.50;63.10;;;;;;5075520;28;20442;-84
2024/03/20 08:03:14;;;;;;;4.30;2.00;;;23.40;62.70;;;;;;5075084;28;20198;-84
2024/03/20 08:05:40;;;;;;;3.17;2.17;;;23.40;63.30;;;;;;5075192;28;20476;-84
2024/03/20 08:08:08;;;;;;;5.80;1.93;;;23.40;63.10;;;;;;5074998;28;20437;-85
2024/03/20 08:10:35;;;;;;;3.07;1.53;;;23.40;62.90;;;;;;5075502;28;20452;-85
2024/03/20 08:13:00;;;;;;;4.10;1.60;;;23.50;63.60;;;;;;5058180;28;21198;-85
2024/03/20 08:15:27;;;;;;;10.13;1.90;;;23.40;63.60;;;;;;5075537;28;20458;-85
2024/03/20 08:17:53;;;;;;;2.40;1.60;;;23.40;63.70;;;;;;5075248;28;20201;-85
2024/03/20 08:20:23;;;;;;;4.83;1.93;;;23.50;63.80;;;;;;5075270;28;20460;-86
2024/03/20 08:22:49;;;;;;;3.53;1.87;;;23.40;63.90;;;;;;5075648;28;20202;-85
2024/03/20 08:25:16;;;;;;;5.03;2.27;;;23.40;63.90;;;;;;5075229;28;20912;-85
2024/03/20 08:27:42;;;;;;;5.30;2.10;;;23.40;63.90;;;;;;5075251;28;20805;-94
2024/03/20 08:30:13;;;;;;;4.93;1.73;;;23.40;64.10;;;;;;5075276;28;20432;-85
2024/03/20 08:32:38;;;;;;;4.67;2.13;;;23.40;64.10;;;;;;5075070;28;20198;-85
2024/03/20 08:35:07;;;;;;;4.00;1.90;;;23.50;64.20;;;;;;5075115;28;20441;-85
2024/03/20 08:37:34;;;;;;;8.77;1.90;;;23.50;64.30;;;;;;5075658;28;20194;-86
2024/03/20 08:40:03;;;;;;;6.90;2.13;;;23.50;64.20;;;;;;5075164;28;20943;-86
2024/03/20 08:42:30;;;;;;;2.63;1.67;;;23.50;64.20;;;;;;5075414;28;20524;-87
2024/03/20 08:44:57;;;;;;;4.83;2.17;;;23.50;64.10;;;;;;5074366;28;20452;-85
2024/03/20 08:47:22;;;;;;;4.43;1.63;;;23.50;64.30;;;;;;5074255;28;20484;-86
2024/03/20 08:49:49;;;;;;;6.37;2.30;;;23.60;64.40;;;;;;5074733;28;20470;-85
2024/03/20 08:52:15;;;;;;;4.43;1.80;;;23.70;64.60;;;;;;5075312;28;20194;-85
2024/03/20 08:54:43;;;;;;;3.83;1.70;;;23.60;64.50;;;;;;5074658;28;20442;-85
2024/03/20 08:57:10;;;;;;;6.57;1.97;;;23.70;64.60;;;;;;5074511;28;20212;-85
2024/03/20 08:59:37;;;;;;;5.27;1.83;;;23.60;64.50;;;;;;5074621;28;20463;-84
2024/03/20 09:02:03;;;;;;;1.97;1.43;;;23.70;64.70;;;;;;5074390;28;20441;-86
2024/03/20 09:04:30;;;;;;;8.13;2.27;;;23.80;64.90;;;;;;5074585;28;20452;-85
2024/03/20 09:06:55;;;;;;;6.00;2.03;;;23.70;64.70;;;;;;5074169;28;20488;-84
2024/03/20 09:09:22;;;;;;;3.67;1.70;;;23.80;64.90;;;;;;5074208;28;20436;-84
2024/03/20 09:11:49;;;;;;;4.00;2.20;;;23.70;64.80;;;;;;5074871;28;20190;-84
2024/03/20 09:14:16;;;;;;;3.00;1.60;;;23.70;64.80;;;;;;5074300;28;20444;-91
2024/03/20 09:16:42;;;;;;;3.83;1.60;;;23.80;64.90;;;;;;5074269;28;20444;-84
2024/03/20 09:19:09;;;;;;;4.43;1.67;;;23.80;64.90;;;;;;5073927;28;20455;-85
2024/03/20 09:21:38;;;;;;;2.90;1.77;;;23.90;65.00;;;;;;5074322;28;20209;-96
2024/03/20 09:24:06;;;;;;;3.40;1.63;;;23.90;65.20;;;;;;5074406;28;20962;-85
2024/03/20 09:26:33;;;;;;;9.90;1.97;;;23.90;65.10;;;;;;5074018;28;20555;-85
2024/03/20 09:29:02;;;;;;;2.30;1.67;;;23.90;65.10;;;;;;5074080;28;20445;-85
2024/03/20 09:31:28;;;;;;;3.97;1.70;;;24.00;65.20;;;;;;5073980;28;20459;-85
2024/03/20 09:33:55;;;;;;;3.10;1.73;;;24.00;65.20;;;;;;5073722;28;20495;-85
2024/03/20 09:36:21;;;;;;;3.50;1.40;;;24.00;65.30;;;;;;5073655;28;20451;-84
2024/03/20 09:38:47;;;;;;;2.67;1.67;;;24.00;65.30;;;;;;5073860;28;20827;-86
2024/03/20 09:41:15;;;;;;;3.00;1.30;;;24.00;65.40;;;;;;5073525;28;20196;-84
2024/03/20 09:43:43;;;;;;;2.43;1.70;;;24.10;65.50;;;;;;5073839;28;20788;-85
2024/03/20 09:46:15;;;;;;;5.70;1.97;;;24.10;65.40;;;;;;5073805;28;20492;-85
2024/03/20 09:48:42;;;;;;;3.87;1.97;;;24.10;65.40;;;;;;5073469;28;20432;-86
2024/03/20 09:51:08;;;;;;;4.40;2.00;;;24.20;65.60;;;;;;5073274;28;20462;-86
2024/03/20 09:53:35;;;;;;;2.80;1.63;;;24.20;65.60;;;;;;5073573;28;20451;-85
2024/03/20 09:56:09;;;;;;;3.67;1.83;;;24.20;65.60;;;;;;5073283;28;20474;-87
2024/03/20 09:58:37;;;;;;;3.80;1.87;;;24.20;65.60;;;;;;5072823;28;20436;-86
2024/03/20 10:01:07;;;;;;;3.67;1.80;;;24.20;65.60;;;;;;5073545;28;20440;-85
2024/03/20 10:03:36;;;;;;;3.27;1.37;;;24.30;65.80;;;;;;5073492;28;20954;-85
2024/03/20 10:06:02;;;;;;;2.90;1.70;;;24.40;65.90;;;;;;5073453;28;20476;-86
2024/03/20 10:08:29;;;;;;;1.80;1.50;;;24.40;65.90;;;;;;5074330;28;20444;-86
2024/03/20 10:10:55;;;;;;;2.20;1.40;;;24.40;65.90;;;;;;5073903;28;20437;-96
2024/03/20 10:13:24;;;;;;;2.10;1.33;;;24.40;65.90;;;;;;5073257;28;20442;-85
2024/03/20 10:16:04;;;;;;;2.50;1.50;;;24.50;66.00;;;;;;5074253;28;20436;-86
2024/03/20 10:18:31;;;;;;;1.80;1.20;;;24.50;66.00;;;;;;5073924;28;20440;-86
2024/03/20 10:20:58;;;;;;;2.63;1.30;;;24.50;66.00;;;;;;5073196;28;20464;-86
2024/03/20 10:23:25;;;;;;;1.80;1.40;;;24.50;66.00;;;;;;5073369;28;20440;-85
2024/03/20 10:25:51;;;;;;;1.80;1.50;;;24.70;66.30;;;;;;5073231;28;20491;-86
2024/03/20 10:28:23;;;;;;;1.77;1.10;;;24.60;66.20;;;;;;5073351;28;20451;-85
2024/03/20 10:30:51;;;;;;;2.40;1.50;;;24.60;66.10;;;;;;5073583;28;20987;-87
2024/03/20 10:33:19;;;;;;;4.23;1.40;;;24.70;66.30;;;;;;5073469;28;20487;-86
2024/03/20 10:35:50;;;;;;;1.90;1.30;;;24.70;66.30;;;;;;5073266;28;20440;-86
2024/03/20 10:38:19;;;;;;;2.50;1.40;;;24.70;66.30;;;;;;5073366;28;20440;-85
2024/03/20 10:40:48;;;;;;;10.70;1.63;;;24.80;66.40;;;;;;5073510;28;20443;-86
2024/03/20 10:43:18;;;;;;;2.43;1.10;;;24.80;66.40;;;;;;5073499;28;20447;-87
2024/03/20 10:45:45;;;;;;;2.13;1.43;;;24.80;66.40;;;;;;5072694;28;20474;-86
2024/03/20 10:48:16;;;;;;;3.10;1.50;;;24.80;66.40;;;;;;5073206;28;20464;-86
2024/03/20 10:50:43;;;;;;;3.23;1.50;;;24.80;66.30;;;;;;5074922;28;20440;-87
2024/03/20 10:53:10;;;;;;;3.40;1.30;;;24.80;66.40;;;;;;5060544;28;20441;-85
2024/03/20 10:55:38;;;;;;;3.50;1.50;;;24.90;66.60;;;;;;5052842;28;20456;-85
2024/03/20 10:58:05;;;;;;;2.23;1.50;;;24.90;66.60;;;;;;5053160;28;20464;-85
2024/03/20 11:00:31;;;;;;;5.03;1.97;;;24.90;66.60;;;;;;5052772;28;20521;-86
2024/03/20 11:02:58;;;;;;;2.30;1.40;;;24.90;66.70;;;;;;5053847;28;20448;-86
2024/03/20 11:05:36;;;;;;;1.90;1.43;;;25.00;66.70;;;;;;5053290;28;20434;-86
2024/03/20 11:08:04;;;;;;;3.03;1.40;;;25.00;66.80;;;;;;5052911;28;20442;-86
2024/03/20 11:10:31;;;;;;;3.07;1.43;;;25.00;66.90;;;;;;5056395;28;20436;-86
2024/03/20 11:12:59;;;;;;;5.00;1.40;;;25.00;66.80;;;;;;5057030;28;20736;-85
2024/03/20 11:15:28;;;;;;;2.80;1.47;;;25.00;67.70;;;;;;5056830;28;20445;-87
2024/03/20 11:17:55;;;;;;;2.13;1.33;;;25.00;66.80;;;;;;5056599;28;20818;-86
2024/03/20 11:20:45;;;;;;;2.33;1.47;;;25.00;66.80;;;;;;5057653;28;20465;-86
2024/03/20 11:23:21;;;;;;;3.57;1.20;;;25.10;66.90;;;;;;5056251;28;20445;-86
2024/03/20 11:25:48;;;;;;;3.33;1.50;;;25.00;66.90;;;;;;5057889;28;20656;-86
2024/03/20 11:28:16;;;;;;;3.70;1.50;;;25.00;67.00;;;;;;5056245;28;20437;-86
2024/03/20 11:30:43;;;;;;;2.33;1.40;;;25.10;67.00;;;;;;5057410;28;20583;-86
2024/03/20 11:33:09;;;;;;;2.83;1.30;;;25.10;66.90;;;;;;5056917;28;20444;-86
2024/03/20 11:35:36;;;;;;;3.13;1.73;;;25.10;67.90;;;;;;5056328;28;20498;-86
2024/03/20 11:38:04;;;;;;;2.67;1.60;;;25.10;67.00;;;;;;5059748;28;20437;-87
2024/03/20 11:40:31;;;;;;;3.63;1.40;;;25.10;67.00;;;;;;5059780;28;20445;-86
2024/03/20 11:42:57;;;;;;;2.57;1.20;;;25.10;67.10;;;;;;5058677;28;20445;-88
2024/03/20 11:45:25;;;;;;;2.10;1.30;;;25.10;67.10;;;;;;5058454;28;20499;-87
2024/03/20 11:47:51;;;;;;;2.50;1.50;;;25.10;67.10;;;;;;5057020;28;20222;-86
2024/03/20 11:50:18;;;;;;;1.87;1.10;;;25.10;67.10;;;;;;5056983;28;20508;-85
2024/03/20 11:52:45;;;;;;;3.73;1.37;;;25.10;67.20;;;;;;5056849;28;20449;-86
2024/03/20 11:55:14;;;;;;;2.30;1.30;;;25.00;67.20;;;;;;5057769;28;20941;-96
2024/03/20 11:57:40;;;;;;;3.80;1.43;;;25.00;67.20;;;;;;5058084;28;20445;-86
2024/03/20 12:00:11;;;;;;;2.17;1.20;;;25.00;67.30;;;;;;5066388;28;21084;-86
2024/03/20 12:02:40;;;;;;;3.90;1.30;;;25.10;67.30;;;;;;5069258;28;20838;-86
2024/03/20 12:05:08;;;;;;;7.37;1.70;;;25.10;67.30;;;;;;5064853;28;20484;-86
2024/03/20 12:07:36;;;;;;;4.57;2.03;;;25.10;67.30;;;;;;5055818;28;20480;-86
2024/03/20 12:10:04;;;;;;;2.30;1.13;;;25.10;67.30;;;;;;5058397;28;20548;-86
2024/03/20 12:12:30;;;;;;;3.30;1.23;;;25.10;67.30;;;;;;5057928;28;20530;-86
2024/03/20 12:14:59;;;;;;;2.80;1.10;;;25.10;67.50;;;;;;5056858;28;20881;-86
2024/03/20 12:17:26;;;;;;;2.10;1.20;;;25.10;67.40;;;;;;5056813;28;20813;-87
2024/03/20 12:19:55;;;;;;;2.73;1.20;;;25.10;67.30;;;;;;5055384;28;20822;-86
2024/03/20 12:22:21;;;;;;;1.90;1.00;;;25.20;67.50;;;;;;5055860;28;20445;-86
2024/03/20 12:24:48;;;;;;;3.43;1.30;;;25.20;67.50;;;;;;5055961;28;20471;-86
2024/03/20 12:27:15;;;;;;;3.40;1.40;;;25.20;67.50;;;;;;5055892;28;20489;-85
2024/03/20 12:29:43;;;;;;;2.20;1.20;;;25.20;67.50;;;;;;5056138;28;20441;-86
2024/03/20 12:32:09;;;;;;;3.80;1.00;;;25.30;67.50;;;;;;5056700;28;20538;-86
2024/03/20 12:34:37;;;;;;;2.20;1.20;;;25.20;67.40;;;;;;5055879;28;20441;-86
2024/03/20 12:37:05;;;;;;;3.53;1.40;;;25.20;67.30;;;;;;5055596;28;20441;-86
2024/03/20 12:39:33;;;;;;;1.90;1.27;;;25.20;67.40;;;;;;5055063;28;20980;-86
2024/03/20 12:42:01;;;;;;;1.57;0.93;;;25.30;67.40;;;;;;5056175;28;20437;-86
2024/03/20 12:44:28;;;;;;;2.40;1.50;;;25.30;67.40;;;;;;5056081;28;20488;-86
2024/03/20 12:46:54;;;;;;;2.57;1.30;;;25.20;67.30;;;;;;5055280;28;20973;-86
2024/03/20 12:49:21;;;;;;;3.60;1.20;;;25.20;67.30;;;;;;5055096;28;20519;-86